createdAt,value
2018-03-03T00:01:11.780Z,96.90
2018-03-03T00:03:39.287Z,96.70
2018-03-03T00:06:06.838Z,96.30
2018-03-03T00:08:34.350Z,96.80
2018-03-03T00:11:01.878Z,96.70
2018-03-03T00:13:29.413Z,96.90
2018-03-03T00:15:57.122Z,96.10
2018-03-03T00:18:24.647Z,96.40
2018-03-03T00:20:52.127Z,96.60
2018-03-03T00:23:19.666Z,96.50
2018-03-03T00:25:47.171Z,96.80
2018-03-03T00:28:15.617Z,97.00
2018-03-03T00:30:43.118Z,97.00
2018-03-03T00:33:11.385Z,96.50
2018-03-03T00:35:38.898Z,96.50
2018-03-03T00:38:06.400Z,96.60
2018-03-03T00:40:34.747Z,96.70
2018-03-03T00:43:02.237Z,96.70
2018-03-03T00:45:30.537Z,97.20
2018-03-03T00:47:58.036Z,97.20
2018-03-03T00:50:25.560Z,97.70
2018-03-03T00:52:53.067Z,97.70
2018-03-03T00:55:20.588Z,97.60
2018-03-03T00:57:48.062Z,98.30
2018-03-03T01:00:15.614Z,98.30
2018-03-03T01:02:43.098Z,98.60
2018-03-03T01:05:10.618Z,98.80
2018-03-03T01:07:38.228Z,98.40
2018-03-03T01:10:05.746Z,98.00
2018-03-03T01:12:33.249Z,98.00
2018-03-03T01:15:00.772Z,97.70
2018-03-03T01:17:28.298Z,97.20
2018-03-03T01:19:56.283Z,97.40
2018-03-03T01:22:23.777Z,98.20
2018-03-03T01:24:51.315Z,97.80
2018-03-03T01:27:18.793Z,97.90
2018-03-03T01:29:46.309Z,97.80
2018-03-03T01:32:13.819Z,97.70
2018-03-03T01:34:41.338Z,97.90
2018-03-03T01:37:08.830Z,97.90
2018-03-03T01:39:36.331Z,98.50
2018-03-03T01:42:03.822Z,98.30
2018-03-03T01:44:31.339Z,98.10
2018-03-03T01:46:59.592Z,98.00
2018-03-03T01:49:27.205Z,98.00
2018-03-03T01:51:54.685Z,98.40
2018-03-03T01:54:22.180Z,98.50
2018-03-03T01:56:50.465Z,98.40
2018-03-03T01:59:18.721Z,97.90
2018-03-03T02:01:46.239Z,97.90
2018-03-03T02:04:13.716Z,97.60
2018-03-03T02:06:41.255Z,97.80
2018-03-03T02:09:08.732Z,97.90
2018-03-03T02:11:36.258Z,97.90
2018-03-03T02:14:03.821Z,97.90
2018-03-03T02:16:31.341Z,97.80
2018-03-03T02:18:59.631Z,97.70
2018-03-03T02:21:27.158Z,97.60
2018-03-03T02:23:55.376Z,97.90
2018-03-03T02:26:22.899Z,97.70
2018-03-03T02:28:50.381Z,98.30
2018-03-03T02:31:18.773Z,98.10
2018-03-03T02:33:46.277Z,98.20
2018-03-03T02:36:13.810Z,98.20
2018-03-03T02:38:41.304Z,98.80
2018-03-03T02:41:08.839Z,98.60
2018-03-03T02:43:36.339Z,98.30
2018-03-03T02:46:04.631Z,98.30
2018-03-03T02:48:32.129Z,98.00
2018-03-03T02:50:59.668Z,98.30
2018-03-03T02:53:27.181Z,98.40
2018-03-03T02:55:54.714Z,98.40
2018-03-03T02:58:22.192Z,99.00
2018-03-03T03:00:49.703Z,98.20
2018-03-03T03:03:17.190Z,98.30
2018-03-03T03:05:46.417Z,98.50
2018-03-03T03:08:14.681Z,98.10
2018-03-03T03:10:42.188Z,98.00
2018-03-03T03:13:09.676Z,98.40
2018-03-03T03:15:37.196Z,98.30
2018-03-03T03:18:04.742Z,98.10
2018-03-03T03:20:33.021Z,97.90
2018-03-03T03:23:01.291Z,97.90
2018-03-03T03:25:29.561Z,98.30
2018-03-03T03:27:57.830Z,98.30
2018-03-03T03:30:25.384Z,98.30
2018-03-03T03:32:52.866Z,97.70
2018-03-03T03:35:21.185Z,98.50
2018-03-03T03:37:48.677Z,98.50
2018-03-03T03:40:16.232Z,98.70
2018-03-03T03:42:43.720Z,98.60
2018-03-03T03:45:12.009Z,98.80
2018-03-03T03:47:39.509Z,98.80
2018-03-03T03:50:07.027Z,99.30
2018-03-03T03:52:34.513Z,99.30
2018-03-03T03:55:02.017Z,99.60
2018-03-03T03:57:30.276Z,98.90
2018-03-03T03:59:57.817Z,98.90
2018-03-03T04:02:25.300Z,98.50
2018-03-03T04:04:52.825Z,98.80
2018-03-03T04:07:20.312Z,99.40
2018-03-03T04:09:47.823Z,99.30
2018-03-03T04:12:15.339Z,99.50
2018-03-03T04:14:43.598Z,99.30
2018-03-03T04:17:11.124Z,99.30
2018-03-03T04:19:38.643Z,99.30
2018-03-03T04:22:06.909Z,99.20
2018-03-03T04:24:35.326Z,99.20
2018-03-03T04:27:02.986Z,99.10
2018-03-03T04:29:30.539Z,99.10
2018-03-03T04:31:58.033Z,99.20
2018-03-03T04:34:25.597Z,99.20
2018-03-03T04:36:53.073Z,99.20
2018-03-03T04:39:20.611Z,99.30
2018-03-03T04:41:48.102Z,99.50
2018-03-03T04:44:15.629Z,99.20
2018-03-03T04:46:43.112Z,99.30
2018-03-03T04:49:10.686Z,99.40
2018-03-03T04:51:38.139Z,99.10
2018-03-03T04:54:06.441Z,99.20
2018-03-03T04:56:33.919Z,99.20
2018-03-03T04:59:01.475Z,99.80
2018-03-03T05:04:53.636Z,99.00
2018-03-03T05:07:26.861Z,99.00
2018-03-03T05:09:54.376Z,98.40
2018-03-03T05:12:24.379Z,98.90
2018-03-03T05:14:56.426Z,98.60
2018-03-03T05:17:42.608Z,99.20
2018-03-03T05:20:22.884Z,99.20
2018-03-03T05:22:56.909Z,99.10
2018-03-03T05:25:25.049Z,99.10
2018-03-03T05:27:58.412Z,99.10
2018-03-03T05:30:31.575Z,99.70
2018-03-03T05:33:05.690Z,99.70
2018-03-03T05:35:38.871Z,99.70
2018-03-03T05:38:27.153Z,99.40
2018-03-03T05:41:14.451Z,98.80
2018-03-03T05:43:52.673Z,99.00
2018-03-03T05:46:41.017Z,98.90
2018-03-03T05:49:25.300Z,98.80
2018-03-03T05:52:08.702Z,99.30
2018-03-03T05:54:41.774Z,99.20
2018-03-03T05:57:10.075Z,99.40
2018-03-03T05:59:43.205Z,99.60
2018-03-03T06:02:26.549Z,98.50
2018-03-03T06:05:11.652Z,99.50
2018-03-03T06:07:58.866Z,99.50
2018-03-03T06:10:26.964Z,99.60
2018-03-03T06:12:54.497Z,98.60
2018-03-03T06:15:22.008Z,98.70
2018-03-03T06:17:49.541Z,99.10
2018-03-03T06:20:17.053Z,99.30
2018-03-03T06:22:44.590Z,97.70
2018-03-03T06:25:13.396Z,98.50
2018-03-03T06:27:41.742Z,98.60
2018-03-03T06:30:09.230Z,98.60
2018-03-03T06:32:37.528Z,99.20
2018-03-03T06:35:05.011Z,99.20
2018-03-03T06:37:32.577Z,99.10
2018-03-03T06:40:00.882Z,99.10
2018-03-03T06:42:28.425Z,99.10
2018-03-03T06:44:55.910Z,99.00
2018-03-03T06:47:24.199Z,98.50
2018-03-03T06:49:51.716Z,98.50
2018-03-03T06:52:19.231Z,99.00
2018-03-03T06:54:46.742Z,99.50
2018-03-03T06:57:14.254Z,99.30
2018-03-03T06:59:41.742Z,99.30
2018-03-03T07:02:09.247Z,99.30
2018-03-03T07:04:36.765Z,99.40
2018-03-03T07:07:04.288Z,99.30
2018-03-03T07:09:31.817Z,99.20
2018-03-03T07:11:59.346Z,98.80
2018-03-03T07:17:33.419Z,98.90
2018-03-03T07:20:00.906Z,98.70
2018-03-03T07:22:28.499Z,99.30
2018-03-03T07:24:55.924Z,98.60
2018-03-03T07:27:23.447Z,98.90
2018-03-03T07:29:51.722Z,98.70
2018-03-03T07:32:20.030Z,98.20
2018-03-03T07:34:47.579Z,98.20
2018-03-03T07:37:15.144Z,98.90
2018-03-03T07:39:42.650Z,99.30
2018-03-03T07:42:10.143Z,99.50
2018-03-03T07:44:37.654Z,98.60
2018-03-03T07:47:05.194Z,98.60
2018-03-03T07:49:32.711Z,98.40
2018-03-03T07:52:01.011Z,98.90
2018-03-03T07:54:28.513Z,98.90
2018-03-03T07:57:07.968Z,98.80
2018-03-03T07:59:36.233Z,98.00
2018-03-03T08:02:03.787Z,98.00
2018-03-03T08:04:31.268Z,98.80
2018-03-03T08:06:59.606Z,98.50
2018-03-03T08:09:27.137Z,98.50
2018-03-03T08:11:54.636Z,98.50
2018-03-03T08:14:22.165Z,98.50
2018-03-03T08:16:49.668Z,98.50
2018-03-03T08:19:17.214Z,98.80
2018-03-03T08:21:44.709Z,98.60
2018-03-03T08:24:13.011Z,98.50
2018-03-03T08:26:40.495Z,98.50
2018-03-03T08:29:08.032Z,98.60
2018-03-03T08:31:35.529Z,98.80
2018-03-03T08:34:03.040Z,99.20
2018-03-03T08:36:30.534Z,98.60
2018-03-03T08:38:58.053Z,98.60
2018-03-03T08:41:25.537Z,98.70
2018-03-03T08:43:53.088Z,98.60
2018-03-03T08:46:20.555Z,99.20
2018-03-03T08:48:48.067Z,99.70
2018-03-03T08:51:15.561Z,99.40
2018-03-03T08:53:43.142Z,99.80
2018-03-03T08:56:10.633Z,99.40
2018-03-03T08:58:38.909Z,99.20
2018-03-03T09:01:07.417Z,99.20
2018-03-03T09:03:34.937Z,99.10
2018-03-03T09:06:02.470Z,99.90
2018-03-03T09:08:30.010Z,99.90
2018-03-03T09:10:57.515Z,99.60
2018-03-03T09:13:25.021Z,99.90
2018-03-03T09:15:52.550Z,99.90
2018-03-03T09:18:20.803Z,99.80
2018-03-03T09:20:49.088Z,99.90
2018-03-03T09:23:17.365Z,99.80
2018-03-03T09:25:44.911Z,99.30
2018-03-03T09:28:12.408Z,99.70
2018-03-03T09:30:39.943Z,99.10
2018-03-03T09:33:08.253Z,99.50
2018-03-03T09:35:35.814Z,99.50
2018-03-03T09:38:03.313Z,99.20
2018-03-03T09:40:30.826Z,98.70
2018-03-03T09:42:58.311Z,99.60
2018-03-03T09:45:26.817Z,99.10
2018-03-03T09:47:54.329Z,99.50
2018-03-03T09:50:23.530Z,99.70
2018-03-03T09:52:51.042Z,98.60
2018-03-03T09:55:18.570Z,99.30
2018-03-03T09:57:46.067Z,99.10
2018-03-03T10:00:14.340Z,98.90
2018-03-03T10:02:42.604Z,99.00
2018-03-03T10:05:10.166Z,99.00
2018-03-03T10:07:37.651Z,99.40
2018-03-03T10:10:05.346Z,99.10
2018-03-03T10:12:32.804Z,98.80
2018-03-03T10:15:00.331Z,99.20
2018-03-03T10:17:28.618Z,99.40
2018-03-03T10:19:56.100Z,99.40
2018-03-03T10:22:23.616Z,98.80
2018-03-03T10:24:52.080Z,99.60
2018-03-03T10:27:19.594Z,99.60
2018-03-03T10:29:47.092Z,99.80
2018-03-03T10:32:14.615Z,99.50
2018-03-03T10:34:42.099Z,99.10
2018-03-03T10:37:09.617Z,99.70
2018-03-03T10:39:37.112Z,99.50
2018-03-03T10:42:04.655Z,99.70
2018-03-03T10:44:32.152Z,99.80
2018-03-03T10:47:00.405Z,99.90
2018-03-03T10:49:27.924Z,99.90
2018-03-03T10:51:55.421Z,99.90
2018-03-03T10:54:22.908Z,98.80
2018-03-03T10:56:51.185Z,99.80
2018-03-03T10:59:19.465Z,99.90
2018-03-03T11:01:47.768Z,99.30
2018-03-03T11:04:15.241Z,99.30
2018-03-03T11:06:42.759Z,99.10
2018-03-03T11:09:11.042Z,99.40
2018-03-03T11:11:38.595Z,99.80
2018-03-03T11:14:06.854Z,98.70
2018-03-03T11:16:34.428Z,98.70
2018-03-03T11:19:01.927Z,98.50
2018-03-03T11:21:29.483Z,99.40
2018-03-03T11:23:57.003Z,99.30
2018-03-03T11:26:25.261Z,98.60
2018-03-03T11:28:52.773Z,98.60
2018-03-03T11:31:20.273Z,98.70
2018-03-03T11:33:47.793Z,98.20
2018-03-03T11:36:15.280Z,98.40
2018-03-03T11:38:42.807Z,98.30
2018-03-03T11:41:10.336Z,99.30
2018-03-03T11:43:38.248Z,98.90
2018-03-03T11:46:05.741Z,97.90
2018-03-03T11:48:33.993Z,98.00
2018-03-03T11:51:01.536Z,98.00
2018-03-03T11:53:29.017Z,98.50
2018-03-03T11:55:56.564Z,98.00
2018-03-03T11:58:24.041Z,98.40
2018-03-03T12:00:51.544Z,97.40
2018-03-03T12:03:19.029Z,96.70
2018-03-03T12:05:46.546Z,96.70
2018-03-03T12:08:14.033Z,98.20
2018-03-03T12:10:41.552Z,98.60
2018-03-03T12:13:09.079Z,98.40
2018-03-03T12:15:36.576Z,97.90
2018-03-03T12:18:04.826Z,99.20
2018-03-03T12:20:32.320Z,99.20
2018-03-03T12:22:59.797Z,98.90
2018-03-03T12:25:27.291Z,98.60
2018-03-03T12:27:54.794Z,98.80
2018-03-03T12:30:22.352Z,97.50
2018-03-03T12:32:49.847Z,97.80
2018-03-03T12:35:17.369Z,98.30
2018-03-03T12:37:44.855Z,97.80
2018-03-03T12:40:12.381Z,96.60
2018-03-03T12:42:39.897Z,97.00
2018-03-03T12:45:07.424Z,97.50
2018-03-03T12:47:34.970Z,97.30
2018-03-03T12:50:02.446Z,97.20
2018-03-03T12:52:29.930Z,93.70
2018-03-03T12:54:57.460Z,96.70
2018-03-03T12:57:24.989Z,95.70
2018-03-03T12:59:52.499Z,96.50
2018-03-03T13:02:19.993Z,95.70
2018-03-03T13:04:48.300Z,96.00
2018-03-03T13:07:15.795Z,96.00
2018-03-03T13:09:43.309Z,97.40
2018-03-03T13:12:10.818Z,96.80
2018-03-03T13:14:38.327Z,96.70
2018-03-03T13:17:05.861Z,96.80
2018-03-03T13:19:34.115Z,96.20
2018-03-03T13:22:01.679Z,96.20
2018-03-03T13:24:29.153Z,96.80
2018-03-03T13:26:57.435Z,96.60
2018-03-03T13:29:25.731Z,97.20
2018-03-03T13:31:53.234Z,97.20
2018-03-03T13:34:20.762Z,95.50
2018-03-03T13:36:48.241Z,96.70
2018-03-03T13:39:15.741Z,96.80
2018-03-03T13:41:44.020Z,96.90
2018-03-03T13:44:12.252Z,96.80
2018-03-03T13:46:39.756Z,96.80
2018-03-03T13:49:08.002Z,97.50
2018-03-03T13:51:35.530Z,97.50
2018-03-03T13:54:03.011Z,96.80
2018-03-03T13:56:30.520Z,96.80
2018-03-03T13:58:57.993Z,97.20
2018-03-03T14:01:26.272Z,98.10
2018-03-03T14:03:53.747Z,98.00
2018-03-03T14:06:21.259Z,97.80
2018-03-03T14:08:49.546Z,98.00
2018-03-03T14:11:17.027Z,98.00
2018-03-03T14:13:44.550Z,97.90
2018-03-03T14:16:12.814Z,97.80
2018-03-03T14:18:41.065Z,98.10
2018-03-03T14:21:08.572Z,98.10
2018-03-03T14:23:36.064Z,98.60
2018-03-03T14:26:03.571Z,97.80
2018-03-03T14:28:31.088Z,98.00
2018-03-03T14:30:58.605Z,97.40
2018-03-03T14:33:26.080Z,97.20
2018-03-03T14:35:53.596Z,97.40
2018-03-03T14:38:21.838Z,96.90
2018-03-03T14:40:49.357Z,96.80
2018-03-03T14:43:16.833Z,97.40
2018-03-03T14:45:44.382Z,96.80
2018-03-03T14:48:11.864Z,96.50
2018-03-03T14:50:39.380Z,97.40
2018-03-03T14:53:07.648Z,97.20
2018-03-03T14:55:35.152Z,97.20
2018-03-03T14:58:02.646Z,97.70
2018-03-03T15:40:32.608Z,98.70
2018-03-03T15:43:00.116Z,99.20
2018-03-03T15:45:27.602Z,99.70
2018-03-03T15:47:55.124Z,99.50
2018-03-03T15:50:22.613Z,99.30
2018-03-03T15:52:50.112Z,99.20
2018-03-03T15:55:18.360Z,99.30
2018-03-03T15:57:45.831Z,99.30
2018-03-03T16:00:13.361Z,99.80
2018-03-03T16:02:40.828Z,99.60
2018-03-03T16:05:08.349Z,99.90
2018-03-03T16:07:35.832Z,99.90
2018-03-03T16:10:04.196Z,99.40
2018-03-03T16:12:31.701Z,99.20
2018-03-03T16:14:59.310Z,99.30
2018-03-03T16:17:27.986Z,99.50
2018-03-03T16:19:55.509Z,99.90
2018-03-03T16:22:22.990Z,99.90
2018-03-03T16:24:51.260Z,99.90
2018-03-03T16:27:18.768Z,99.90
2018-03-03T16:29:46.256Z,99.90
2018-03-03T16:32:13.770Z,99.90
2018-03-03T16:34:41.291Z,99.90
2018-03-03T16:37:08.790Z,99.90
2018-03-03T16:39:36.315Z,99.90
2018-03-03T16:42:03.815Z,99.90
2018-03-03T16:44:31.335Z,99.90
2018-03-03T16:46:58.847Z,99.90
2018-03-03T16:49:26.347Z,99.90
2018-03-03T16:51:53.861Z,99.90
2018-03-03T16:54:21.381Z,99.90
2018-03-03T16:56:48.872Z,99.90
2018-03-03T16:59:16.381Z,99.90
2018-03-03T17:01:43.875Z,99.90
2018-03-03T17:04:11.384Z,99.90
2018-03-03T17:06:39.679Z,99.90
2018-03-03T17:09:07.253Z,99.90
2018-03-03T17:11:34.783Z,99.90
2018-03-03T17:14:03.061Z,99.90
2018-03-03T17:16:31.319Z,99.90
2018-03-03T17:18:58.923Z,99.90
2018-03-03T17:21:26.429Z,99.90
2018-03-03T17:23:53.935Z,99.90
2018-03-03T17:26:21.466Z,99.90
2018-03-03T17:28:49.739Z,99.90
2018-03-03T17:31:18.008Z,99.90
2018-03-03T17:33:45.561Z,99.90
2018-03-03T17:36:13.036Z,99.90
2018-03-03T17:38:41.303Z,99.90
2018-03-03T17:41:08.845Z,99.90
2018-03-03T17:43:36.409Z,99.90
2018-03-03T17:46:03.896Z,99.90
2018-03-03T17:48:32.182Z,99.90
2018-03-03T17:50:59.692Z,99.90
2018-03-03T17:53:27.220Z,99.90
2018-03-03T17:55:54.723Z,99.90
2018-03-03T17:58:22.258Z,99.90
2018-03-03T18:00:49.737Z,99.90
2018-03-03T18:03:17.212Z,99.90
2018-03-03T18:05:45.513Z,99.90
2018-03-03T18:08:13.015Z,99.90
2018-03-03T18:10:40.540Z,99.90
2018-03-03T18:13:08.017Z,99.90
2018-03-03T18:15:35.612Z,99.90
2018-03-03T18:18:03.110Z,99.90
2018-03-03T18:20:30.647Z,99.90
2018-03-03T18:22:58.937Z,99.90
2018-03-03T18:25:26.466Z,99.90
2018-03-03T18:27:53.978Z,99.90
2018-03-03T18:30:21.516Z,99.90
2018-03-03T18:32:49.016Z,99.90
2018-03-03T18:35:16.559Z,99.90
2018-03-03T18:37:44.138Z,99.90
2018-03-03T18:40:11.660Z,99.90
2018-03-03T18:42:39.940Z,99.90
2018-03-03T18:45:07.653Z,99.90
2018-03-03T18:47:35.145Z,99.90
2018-03-03T18:50:02.628Z,99.90
2018-03-03T18:52:30.192Z,99.90
2018-03-03T18:54:57.700Z,99.90
2018-03-03T18:57:26.000Z,99.90
2018-03-03T18:59:53.492Z,99.90
2018-03-03T19:02:21.000Z,99.90
2018-03-03T19:04:49.271Z,99.90
2018-03-03T19:07:16.802Z,99.90
2018-03-03T19:09:44.730Z,99.90
2018-03-03T19:12:12.296Z,99.90
2018-03-03T19:14:39.800Z,99.90
2018-03-03T19:17:07.312Z,99.90
2018-03-03T19:19:34.815Z,99.90
2018-03-03T19:22:02.357Z,99.90
2018-03-03T19:24:29.864Z,99.90
2018-03-03T19:26:57.368Z,99.90
2018-03-03T19:29:24.866Z,99.90
2018-03-03T19:31:53.164Z,99.90
2018-03-03T19:34:20.657Z,99.90
2018-03-03T19:36:48.176Z,99.90
2018-03-03T19:39:15.664Z,99.90
2018-03-03T19:41:43.215Z,99.90
2018-03-03T19:44:10.716Z,99.90
2018-03-03T19:46:38.242Z,99.90
2018-03-03T19:49:05.768Z,99.90
2018-03-03T19:51:33.275Z,99.90
2018-03-03T19:54:00.785Z,99.90
2018-03-03T19:56:28.321Z,99.90
2018-03-03T19:58:56.563Z,99.90
2018-03-03T20:01:24.093Z,99.90
2018-03-03T20:03:51.600Z,99.90
2018-03-03T20:06:19.077Z,99.90
2018-03-03T20:08:47.362Z,99.90
2018-03-03T20:11:15.622Z,99.90
2018-03-03T20:13:43.911Z,99.90
2018-03-03T20:16:11.552Z,99.90
2018-03-03T20:18:39.975Z,99.90
2018-03-03T20:21:07.494Z,99.90
2018-03-03T20:23:35.029Z,99.90
2018-03-03T20:26:02.540Z,99.90
2018-03-03T20:28:30.075Z,99.90
2018-03-03T20:30:58.329Z,99.90
2018-03-03T20:33:26.022Z,99.90
2018-03-03T20:35:54.263Z,99.90
2018-03-03T20:38:21.752Z,99.90
2018-03-03T20:40:49.272Z,99.90
2018-03-03T20:43:16.814Z,99.90
2018-03-03T20:45:44.316Z,99.90
2018-03-03T20:48:11.918Z,99.90
2018-03-03T20:50:39.472Z,99.90
2018-03-03T20:53:06.968Z,99.90
2018-03-03T20:55:34.603Z,99.90
2018-03-03T20:58:02.158Z,99.90
2018-03-03T21:00:39.630Z,99.90
2018-03-03T21:03:07.124Z,99.90
2018-03-03T21:05:34.674Z,99.90
2018-03-03T21:08:02.165Z,99.90
2018-03-03T21:10:29.669Z,99.90
2018-03-03T21:12:57.181Z,99.90
2018-03-03T21:15:24.687Z,99.90
2018-03-03T21:17:52.155Z,99.90
2018-03-03T21:20:19.640Z,99.90
2018-03-03T21:22:47.168Z,99.90
2018-03-03T21:25:14.662Z,99.90
2018-03-03T21:27:42.232Z,99.90
2018-03-03T21:30:09.803Z,99.90
2018-03-03T21:32:37.288Z,99.90
2018-03-03T21:35:04.790Z,99.90
2018-03-03T21:37:32.317Z,99.90
2018-03-03T21:39:59.851Z,99.90
2018-03-03T21:42:28.107Z,99.90
2018-03-03T21:44:55.606Z,99.90
2018-03-03T21:47:23.121Z,99.90
2018-03-03T21:49:50.609Z,99.90
2018-03-03T21:52:18.882Z,99.90
2018-03-03T21:54:47.132Z,99.90
2018-03-03T21:57:14.715Z,99.90
2018-03-03T21:59:42.952Z,99.90
2018-03-03T22:02:10.479Z,99.90
2018-03-03T22:04:37.973Z,99.90
2018-03-03T22:07:05.484Z,99.90
2018-03-03T22:09:33.031Z,99.90
2018-03-03T22:12:00.525Z,99.90
2018-03-03T22:14:28.011Z,99.90
2018-03-03T22:16:55.532Z,99.90
2018-03-03T22:19:23.008Z,99.90
2018-03-03T22:21:50.570Z,99.90
2018-03-03T22:24:18.068Z,99.90
2018-03-03T22:26:45.596Z,99.90
2018-03-03T22:29:13.135Z,99.90
2018-03-03T22:31:40.680Z,99.90
2018-03-03T22:34:08.147Z,99.90
2018-03-03T22:36:36.435Z,99.90
2018-03-03T22:39:03.937Z,99.90
2018-03-03T22:41:32.203Z,99.90
2018-03-03T22:43:59.706Z,99.90
2018-03-03T22:46:27.217Z,99.90
2018-03-03T22:48:55.477Z,99.90
2018-03-03T22:51:22.991Z,99.90
2018-03-03T22:53:50.484Z,99.90
2018-03-03T22:56:17.987Z,99.90
2018-03-03T22:58:46.298Z,99.90
2018-03-03T23:01:13.799Z,99.90
2018-03-03T23:03:41.278Z,99.90
2018-03-03T23:06:09.544Z,99.90
2018-03-03T23:08:37.036Z,99.90
2018-03-03T23:11:04.569Z,99.90
2018-03-03T23:13:32.807Z,99.90
2018-03-03T23:16:00.340Z,99.90
2018-03-03T23:18:27.830Z,99.90
2018-03-03T23:20:55.369Z,99.90
2018-03-03T23:23:22.882Z,99.90
2018-03-03T23:25:50.445Z,99.90
2018-03-03T23:28:18.779Z,99.90
2018-03-03T23:30:46.303Z,99.90
2018-03-03T23:33:13.799Z,99.90
2018-03-03T23:35:41.357Z,99.90
2018-03-03T23:38:08.840Z,99.90
2018-03-03T23:40:37.115Z,99.90
2018-03-03T23:43:05.402Z,99.90
2018-03-03T23:45:33.653Z,99.90
2018-03-03T23:48:01.176Z,99.90
2018-03-03T23:50:28.667Z,99.90
2018-03-03T23:52:56.185Z,99.90
2018-03-03T23:55:23.660Z,99.90
2018-03-03T23:57:51.156Z,99.90
